»·PEaware :: UPS776 KRNO-KPDX

UPS776 :: KRNO-KPDX

FLIGHT INFORMATION

Flight Status: Arrived
Operator:
United Parcel Service
More flights by this operator :: More flights under this callsign
Pilot: Jason G. (14075)
Aircraft: Unknown
(B748)
More flights by this aircraft type
Origin: KRNO Reno/Tahoe Intl
United States
Destination: KPDX Portland Intl
United States
More flights between these airports :: More routes between these airports
Route: +ZEFFR6 BLKJK WNDEL SOERN TMBRS2
File this flight plan on PilotEdge
Remarks: PBN / A1B1C1D1L1O1S2 NAV / RNVD1E2A1 REG / N488SB EET / KZSE0016 RMK / SIMBRIEF
Altitude:
(Current/Filed)
40,000ft
Speed:
(Current/Filed)
476kts
Departed: 15-Sep-18 11:58 AM
Arrived: 15-Sep-18 01:02 PM
Distance/Time
Traveled:
386nm/1:04
Distance/Time
To Go:
Arrived

Flight Plot

Page will automatically refresh every two minutes.

Flight plan parsing failed; only flown route is shown


Map Options




Map Legend


Flown Route
Filed Route
Departure Airport
Arrival Airport
Navaid (VOR, NDB)
Fix

Horizontal Profiles

Position Reports

Time Latitude Longitude Heading Altitude Ground
Speed
15-Sep-18 11:35 39.510150 -119.772226 269 4424ft 0kts
15-Sep-18 11:36 39.510150 -119.772226 269 4424ft 0kts
15-Sep-18 11:37 39.510150 -119.772226 269 4424ft 0kts
15-Sep-18 11:38 39.510150 -119.772226 269 4424ft 0kts
15-Sep-18 11:39 39.510150 -119.772226 269 4424ft 0kts
15-Sep-18 11:40 39.510150 -119.772226 269 4424ft 0kts
15-Sep-18 11:41 39.510150 -119.772226 269 4424ft 0kts
15-Sep-18 11:42 39.510150 -119.772226 269 4424ft 0kts
15-Sep-18 11:43 39.510150 -119.772226 269 4424ft 0kts
15-Sep-18 11:44 39.510150 -119.772226 269 4424ft 0kts
15-Sep-18 11:45 39.510150 -119.772226 269 4424ft 0kts
15-Sep-18 11:46 39.510150 -119.772226 269 4424ft 0kts
15-Sep-18 11:47 39.510150 -119.772226 269 4424ft 0kts
15-Sep-18 11:48 39.510150 -119.772226 269 4424ft 0kts
15-Sep-18 11:49 39.510150 -119.772226 269 4424ft 0kts
15-Sep-18 11:50 39.510150 -119.772226 269 4424ft 0kts
15-Sep-18 11:51 39.510150 -119.772226 269 4424ft 0kts
15-Sep-18 11:52 39.510021 -119.771655 319 4423ft 2kts
15-Sep-18 11:53 39.509611 -119.771459 1 4421ft 0kts
15-Sep-18 11:54 39.509611 -119.771459 1 4421ft 0kts
15-Sep-18 11:55 39.509610 -119.771459 0 4421ft 0kts
15-Sep-18 11:56 39.511749 -119.771466 359 4424ft 6kts
15-Sep-18 11:57 39.513445 -119.771413 17 4426ft 5kts
15-Sep-18 11:58 39.513772 -119.770813 83 4426ft 0kts
15-Sep-18 11:59 39.513274 -119.769264 179 4424ft 7kts
15-Sep-18 12:00 39.499057 -119.769313 185 4467ft 190kts
15-Sep-18 12:01 39.447963 -119.767874 184 8009ft 232kts
15-Sep-18 12:02 39.383321 -119.769353 182 10891ft 276kts
15-Sep-18 12:03 39.312741 -119.739745 140 14347ft 304kts
15-Sep-18 12:04 39.283529 -119.642420 82 16833ft 371kts
15-Sep-18 12:05 39.343567 -119.522796 48 17829ft 464kts
15-Sep-18 12:06 39.437627 -119.411297 28 20681ft 490kts
15-Sep-18 12:07 39.568042 -119.407463 330 23330ft 488kts
15-Sep-18 12:08 39.674343 -119.510677 308 26027ft 487kts
15-Sep-18 12:09 39.771330 -119.629120 310 28388ft 507kts
15-Sep-18 12:10 39.879933 -119.749844 312 30846ft 523kts
15-Sep-18 12:11 39.990279 -119.869318 311 33912ft 513kts
15-Sep-18 12:12 40.097815 -119.987780 310 36418ft 504kts
15-Sep-18 12:13 40.198069 -120.097936 310 38000ft 503kts
15-Sep-18 12:14 40.304385 -120.215772 310 39365ft 502kts
15-Sep-18 12:15 40.411632 -120.328877 320 39998ft 514kts
15-Sep-18 12:16 40.542714 -120.407235 331 39996ft 528kts
15-Sep-18 12:17 40.678333 -120.476670 329 39998ft 526kts
15-Sep-18 12:18 40.811725 -120.551737 328 39999ft 524kts
15-Sep-18 12:19 40.944955 -120.628785 328 40015ft 524kts
15-Sep-18 12:20 41.069867 -120.701395 328 40032ft 530kts
15-Sep-18 12:21 41.193156 -120.773020 329 40007ft 534kts
15-Sep-18 12:22 41.329214 -120.850937 329 39998ft 534kts
15-Sep-18 12:23 41.464494 -120.929518 329 39997ft 533kts
15-Sep-18 12:24 41.598484 -121.007808 329 40000ft 517kts
15-Sep-18 12:25 41.725968 -121.082511 330 39995ft 496kts
15-Sep-18 12:26 41.849983 -121.155798 332 39993ft 484kts
15-Sep-18 12:27 41.971183 -121.227693 333 39991ft 480kts
15-Sep-18 12:28 42.092527 -121.299863 333 39991ft 480kts
15-Sep-18 12:29 42.208321 -121.368317 333 39987ft 481kts
15-Sep-18 12:30 42.331020 -121.441397 333 39984ft 483kts
15-Sep-18 12:31 42.452605 -121.514615 333 39987ft 480kts
15-Sep-18 12:32 42.572153 -121.586945 333 39987ft 480kts
15-Sep-18 12:33 42.687184 -121.656846 332 39988ft 480kts
15-Sep-18 12:34 42.806714 -121.730912 332 39990ft 479kts
15-Sep-18 12:35 42.905178 -121.791401 332 39990ft 481kts
15-Sep-18 12:36 43.046545 -121.881351 328 39994ft 490kts
15-Sep-18 12:37 43.137167 -121.952440 325 39988ft 488kts
15-Sep-18 12:38 43.274581 -122.055524 329 39973ft 490kts
15-Sep-18 12:39 43.375616 -122.124009 330 39974ft 490kts
15-Sep-18 12:40 43.517825 -122.216841 343 39922ft 496kts
15-Sep-18 12:41 43.648792 -122.269875 337 38442ft 498kts
15-Sep-18 12:42 43.754942 -122.321450 337 36563ft 493kts
15-Sep-18 12:43 43.883268 -122.381827 338 34362ft 498kts
15-Sep-18 12:44 44.011822 -122.441194 338 32210ft 504kts
15-Sep-18 12:45 44.123557 -122.493155 338 30386ft 508kts
15-Sep-18 12:46 44.250048 -122.551526 338 28361ft 502kts
15-Sep-18 12:47 44.375888 -122.610416 338 26441ft 484kts
15-Sep-18 12:48 44.496774 -122.667989 337 24788ft 467kts
15-Sep-18 12:49 44.616311 -122.712330 354 22619ft 448kts
15-Sep-18 12:50 44.661952 -122.710755 1 21526ft 449kts
15-Sep-18 12:51 44.783039 -122.689511 3 18677ft 443kts
15-Sep-18 12:52 44.902920 -122.677778 0 16078ft 429kts
15-Sep-18 12:53 45.016266 -122.667207 1 15006ft 378kts
15-Sep-18 12:54 45.106979 -122.657732 1 14069ft 330kts
15-Sep-18 12:55 45.190696 -122.649220 1 11037ft 303kts
15-Sep-18 12:56 45.271470 -122.623223 27 8564ft 294kts
15-Sep-18 12:57 45.337905 -122.564554 31 6449ft 271kts
15-Sep-18 12:58 45.395977 -122.511372 30 4991ft 226kts
15-Sep-18 12:59 45.447685 -122.463710 18 3913ft 221kts
15-Sep-18 13:00 45.491341 -122.469652 314 2597ft 171kts
15-Sep-18 13:01 45.519630 -122.508633 332 2502ft 151kts
15-Sep-18 13:02 45.552601 -122.536498 327 1019ft 149kts
15-Sep-18 13:03 45.578776 -122.579384 297 196ft 149kts
15-Sep-18 13:04 45.588583 -122.604707 296 44ft 18kts
15-Sep-18 13:05 45.587505 -122.607239 223 44ft 10kts
15-Sep-18 13:06 45.586388 -122.605581 136 44ft 6kts
15-Sep-18 13:07 45.585829 -122.605399 178 44ft 1kts
15-Sep-18 13:08 45.585786 -122.605399 178 44ft 0kts

Navigation Log

Ident Type
Flight plan parsing failed, navigation log unavailable